空の公差-Tolerance-

航空写真家 瀬尾 央(せお ひろし)氏による月刊「航空ファン」の連載記事、『 Light & Flight 』に中学生の頃出会い、触発され、写真撮影とプロペラ単発機での飛行を趣味として、空の写真、空からの写真を撮り続けています。 2004年には自費出版の写真集「空の公差-Tolerance-」(エアワークス刊,ISBN9784902113037)を作りました。

2006年05月

遅い新幹線

ひさしぶりの栃木路。
ちょっと(2駅だけ)乗ってみた。

966b0443.jpg
bdacc495.jpg

ワンマンでしかも、扇風機がついてます

帰りは、いまどきカードの使えない宇都宮駅と駅員と遅れた新幹線で最悪。

Deutschland in Japan

青山のドイツ文化会館へ。
ワールドカップとは無縁ですけど・・・

d39eddd8.jpg

d1ed720f.jpg

内容は『仕事』です
1/4インチVGA3枚玉でTTL4mmちょっと・・小さい!

さんぽ

午後はなんとなく明るい日。

江ノ島にでもプラッと行こうとおもったが、結局、車でちょっと走り、
そこから散歩。

ヒサビサにBESSA-Tで撮るが、これといった手応えなし・・・。

002e6419.jpg

これは似たような日にBESSA-R

四ツ谷あたり

社外でセミナー。ふりそうで降らない天気

ddba151b.jpg

外濠の土手(?)のあたり
9cc27f3c.jpg

新学期ぽい行事中?の某大学構内

ループ

日曜の日没前のセスナのループ。
解像するかな・・・。

9e49340c.jpg

ちょっとした航空ショー? 

今日も検索

今日も探し物。

山なんとか氏が視察とやらですぐ横を通過。
御着きの人総勢8人+カメラマン。多っ!

5cd2f0fb.jpg

頭を使うと甘い物が欲しくなる?

大利根LCL 1400-1450 (0+50) A150L

大利根LCL 1400-1450 (0+50) A150L

梅雨前の気分転換に特に目的もなくプラプラ。
OさんのゲストKさんと飛ぶ。

2ca60662.jpg

調布から飛来したセスナ150Cと大利根のエアロバット
cba34f3e.jpg

操縦席。けっこう重装備

このセスナ150C乗ってみたい・・・どうすればいいんだろう?
アメリカでも見た、これはセスナ150B

05/21 14:00 RJAA 210500Z 13013KT 9999
FEW030 21/13 Q1014 NOSIG RMK 1CU030 A2996=

やっと金曜

なぜだか長かった今週。

7fffb95e.jpg

久しぶりの夕日模様だが

・・・電車を降りたら愕然・・・!?・・・

05/19 21:30 RJTT 191230Z 20011KT 2500 R34L/P1800N
R22/P1800N R16L/P1800N R26L/P1800N SHRADZ BR
FEW001 BKN002 BKN004 20/19 Q1004 RMK 2ST001 5ST002
7ST004 A2965=

05/19 21:52 RJTT 191252Z 19011KT 3000 +SHRA BR
FEW002 SCT003 BKN005 20/20 Q1003 RMK 2ST002
4ST003 6ST005 A2964 RI++=

切れました。

一日特許庁でG02・・・の検索したら目の血管が・・・。
ストロボライトがケラレない花形フードなんてのもありました。
しかしここで仕事をしている人たちって。。。

7b6e416e.jpg

花形フードで計器板中央部がケラレてます

晴れ間のおめでとう

某Kさんの実地試験日。

c03ac5fd.jpg

朝6時。全然まったく問題なさそう

05/15 00:00 RJAA 141500Z 150018 12007KT 9999
FEW020=

05/15 03:00 RJAA 141800Z 141803 01005KT 9999
FEW020 BECMG 2224 09007KT=

で、合格したそうです。おめでとうございます!
記事検索
月別アーカイブ
livedoor プロフィール
タグクラウド
QRコード
QRコード
  • ライブドアブログ